Greenhithe, United Kingdom
Current Conditions -  °F | °C
As of 11:20 PM on Saturday 20 Dec 2014 (Local Time) from EGLC Reporting Station
Clear Clear  
Wind Chill:   Ceiling: Unl
Heat Index:   Visibility: 6mi
Dew Point:   Wind: 12mph
Humidity: 76%   Direction: 250°WSW
Pressure: 30.45"   Gusts: NA
Location:  51.45°N, 0.28°E
Report Text: EGLC 202320Z AUTO 25010KT 9999 NCD 07/03 Q1031
Loading
Personal Weather Stations






























Interactive Weather Map New forecast layout! Learn more

10-Day Weather Forecast

Advertisements
Track Severe Weather on mobile